sensor_id;sensor_type;location;lat;lon;timestamp;pressure;altitude;pressure_sealevel;temperature;humidity
13124;BME280;6627;50.920;12.050;2023-05-02T00:02:04;98969.78;;;23.87;42.69
13124;BME280;6627;50.920;12.050;2023-05-02T00:04:31;98755.41;;;22.50;44.36
13124;BME280;6627;50.920;12.050;2023-05-02T00:06:59;98745.38;;;22.34;44.51
13124;BME280;6627;50.920;12.050;2023-05-02T00:09:28;98716.06;;;21.85;45.81
13124;BME280;6627;50.920;12.050;2023-05-02T00:11:55;98812.28;;;22.61;45.16
13124;BME280;6627;50.920;12.050;2023-05-02T00:14:23;98913.25;;;23.40;43.86
13124;BME280;6627;50.920;12.050;2023-05-02T00:16:50;98890.13;;;23.15;44.19
13124;BME280;6627;50.920;12.050;2023-05-02T00:19:18;98753.63;;;22.31;44.69
13124;BME280;6627;50.920;12.050;2023-05-02T00:21:46;98716.41;;;22.14;44.10
13124;BME280;6627;50.920;12.050;2023-05-02T00:24:14;98799.13;;;22.48;44.79
13124;BME280;6627;50.920;12.050;2023-05-02T00:26:43;98915.03;;;23.63;42.41
13124;BME280;6627;50.920;12.050;2023-05-02T00:29:11;98690.81;;;22.13;43.98
13124;BME280;6627;50.920;12.050;2023-05-02T00:31:39;98781.56;;;22.66;43.67
13124;BME280;6627;50.920;12.050;2023-05-02T00:34:06;98561.28;;;20.82;45.95
13124;BME280;6627;50.920;12.050;2023-05-02T00:36:34;98748.22;;;22.41;43.53
13124;BME280;6627;50.920;12.050;2023-05-02T00:39:01;98658.84;;;21.41;45.35
13124;BME280;6627;50.920;12.050;2023-05-02T00:41:29;98632.59;;;21.21;45.97
13124;BME280;6627;50.920;12.050;2023-05-02T00:43:58;98593.78;;;20.73;46.77
13124;BME280;6627;50.920;12.050;2023-05-02T00:46:25;98716.22;;;22.00;44.18
13124;BME280;6627;50.920;12.050;2023-05-02T00:48:53;98744.34;;;22.12;43.70
13124;BME280;6627;50.920;12.050;2023-05-02T00:51:20;98905.44;;;23.50;42.25
13124;BME280;6627;50.920;12.050;2023-05-02T00:53:48;98612.00;;;21.11;45.28
13124;BME280;6627;50.920;12.050;2023-05-02T00:56:15;98652.94;;;21.77;43.89
13124;BME280;6627;50.920;12.050;2023-05-02T00:58:43;98759.88;;;22.24;44.33
13124;BME280;6627;50.920;12.050;2023-05-02T01:01:29;98570.59;;;20.74;45.70
13124;BME280;6627;50.920;12.050;2023-05-02T01:04:12;98613.44;;;21.02;45.48
13124;BME280;6627;50.920;12.050;2023-05-02T01:07:01;98840.34;;;22.67;43.56
13124;BME280;6627;50.920;12.050;2023-05-02T01:09:43;98612.59;;;21.58;43.55
13124;BME280;6627;50.920;12.050;2023-05-02T01:12:23;98845.19;;;23.18;42.31
13124;BME280;6627;50.920;12.050;2023-05-02T01:14:54;98648.78;;;22.34;41.60
13124;BME280;6627;50.920;12.050;2023-05-02T01:17:29;98734.13;;;22.54;42.91
13124;BME280;6627;50.920;12.050;2023-05-02T01:20:01;98617.53;;;21.82;42.53
13124;BME280;6627;50.920;12.050;2023-05-02T01:22:30;98601.31;;;21.36;44.27
13124;BME280;6627;50.920;12.050;2023-05-02T01:25:10;98534.41;;;20.72;44.86
13124;BME280;6627;50.920;12.050;2023-05-02T01:27:51;98561.22;;;20.79;45.28
13124;BME280;6627;50.920;12.050;2023-05-02T01:30:27;98757.28;;;22.08;43.82
13124;BME280;6627;50.920;12.050;2023-05-02T01:32:58;98561.78;;;20.61;45.03
13124;BME280;6627;50.920;12.050;2023-05-02T01:35:30;98599.66;;;20.72;45.55
13124;BME280;6627;50.920;12.050;2023-05-02T01:38:00;98663.69;;;21.52;43.66
13124;BME280;6627;50.920;12.050;2023-05-02T01:40:29;98742.78;;;21.81;44.55
13124;BME280;6627;50.920;12.050;2023-05-02T01:42:58;98715.00;;;21.63;43.74
13124;BME280;6627;50.920;12.050;2023-05-02T01:45:33;98672.91;;;21.33;44.10
13124;BME280;6627;50.920;12.050;2023-05-02T01:48:01;98869.72;;;22.86;42.78
13124;BME280;6627;50.920;12.050;2023-05-02T01:50:29;98921.56;;;23.88;40.12
13124;BME280;6627;50.920;12.050;2023-05-02T01:52:57;98594.34;;;21.46;42.71
13124;BME280;6627;50.920;12.050;2023-05-02T01:55:27;98692.56;;;21.61;44.23
13124;BME280;6627;50.920;12.050;2023-05-02T01:57:56;98859.34;;;23.13;41.53
13124;BME280;6627;50.920;12.050;2023-05-02T02:00:25;98862.66;;;23.29;41.32
13124;BME280;6627;50.920;12.050;2023-05-02T02:02:55;98649.47;;;21.83;42.62
13124;BME280;6627;50.920;12.050;2023-05-02T02:05:24;98749.28;;;22.74;41.12
13124;BME280;6627;50.920;12.050;2023-05-02T02:07:52;98599.31;;;21.33;43.00
13124;BME280;6627;50.920;12.050;2023-05-02T02:10:20;98809.28;;;22.77;42.40
13124;BME280;6627;50.920;12.050;2023-05-02T02:12:53;98792.84;;;22.91;41.43
13124;BME280;6627;50.920;12.050;2023-05-02T02:15:28;98835.03;;;23.36;40.30
13124;BME280;6627;50.920;12.050;2023-05-02T02:18:01;98623.88;;;21.86;41.92
13124;BME280;6627;50.920;12.050;2023-05-02T02:20:32;98842.97;;;23.41;40.39
13124;BME280;6627;50.920;12.050;2023-05-02T02:23:06;98573.91;;;21.51;42.30
13124;BME280;6627;50.920;12.050;2023-05-02T02:25:34;98677.59;;;22.00;42.51
13124;BME280;6627;50.920;12.050;2023-05-02T02:28:02;98686.66;;;21.97;42.63
13124;BME280;6627;50.920;12.050;2023-05-02T02:30:29;98634.53;;;21.47;43.92
13124;BME280;6627;50.920;12.050;2023-05-02T02:32:59;98787.69;;;22.46;42.56
13124;BME280;6627;50.920;12.050;2023-05-02T02:35:33;98777.31;;;22.32;42.85
13124;BME280;6627;50.920;12.050;2023-05-02T02:38:10;98786.19;;;22.55;42.07
13124;BME280;6627;50.920;12.050;2023-05-02T02:40:43;98812.53;;;22.86;41.23
13124;BME280;6627;50.920;12.050;2023-05-02T02:43:19;98751.25;;;22.29;42.36
13124;BME280;6627;50.920;12.050;2023-05-02T02:46:01;98669.16;;;21.48;43.05
13124;BME280;6627;50.920;12.050;2023-05-02T02:48:42;98648.38;;;21.54;42.71
13124;BME280;6627;50.920;12.050;2023-05-02T02:51:22;98689.16;;;21.75;42.99
13124;BME280;6627;50.920;12.050;2023-05-02T02:53:59;98731.34;;;22.13;41.87
13124;BME280;6627;50.920;12.050;2023-05-02T02:56:38;98769.53;;;22.45;41.62
13124;BME280;6627;50.920;12.050;2023-05-02T03:02:04;98692.84;;;21.53;42.93
13124;BME280;6627;50.920;12.050;2023-05-02T03:04:40;98703.03;;;21.49;43.14
13124;BME280;6627;50.920;12.050;2023-05-02T03:07:09;98637.91;;;21.07;42.75
13124;BME280;6627;50.920;12.050;2023-05-02T03:09:40;98702.41;;;21.32;43.57
13124;BME280;6627;50.920;12.050;2023-05-02T03:12:07;98702.28;;;21.52;42.42
13124;BME280;6627;50.920;12.050;2023-05-02T03:14:35;98725.41;;;21.77;42.46
13124;BME280;6627;50.920;12.050;2023-05-02T03:17:04;98807.41;;;22.48;40.75
13124;BME280;6627;50.920;12.050;2023-05-02T03:19:35;98824.75;;;22.45;41.31
13124;BME280;6627;50.920;12.050;2023-05-02T03:22:02;98684.91;;;21.48;41.91
13124;BME280;6627;50.920;12.050;2023-05-02T03:24:29;98840.00;;;22.72;41.03
13124;BME280;6627;50.920;12.050;2023-05-02T03:26:57;98686.50;;;21.49;41.94
13124;BME280;6627;50.920;12.050;2023-05-02T03:29:25;98824.22;;;22.35;41.42
13124;BME280;6627;50.920;12.050;2023-05-02T03:31:53;98787.38;;;22.17;41.26
13124;BME280;6627;50.920;12.050;2023-05-02T03:34:20;98648.59;;;20.82;43.70
13124;BME280;6627;50.920;12.050;2023-05-02T03:36:50;98720.41;;;21.53;42.64
13124;BME280;6627;50.920;12.050;2023-05-02T03:39:17;98774.41;;;21.87;41.97
13124;BME280;6627;50.920;12.050;2023-05-02T03:41:44;98839.59;;;22.33;41.79
13124;BME280;6627;50.920;12.050;2023-05-02T03:44:11;98790.97;;;22.21;40.89
13124;BME280;6627;50.920;12.050;2023-05-02T03:46:39;98832.75;;;22.57;40.23
13124;BME280;6627;50.920;12.050;2023-05-02T03:49:06;98757.00;;;21.83;41.30
13124;BME280;6627;50.920;12.050;2023-05-02T03:51:34;98726.88;;;21.37;41.94
13124;BME280;6627;50.920;12.050;2023-05-02T03:54:03;98690.72;;;21.12;42.55
13124;BME280;6627;50.920;12.050;2023-05-02T03:56:30;98682.53;;;20.89;43.45
13124;BME280;6627;50.920;12.050;2023-05-02T03:58:57;98768.50;;;21.59;42.45
13124;BME280;6627;50.920;12.050;2023-05-02T04:01:24;98774.81;;;21.59;42.22
13124;BME280;6627;50.920;12.050;2023-05-02T04:03:51;98833.56;;;21.94;42.13
13124;BME280;6627;50.920;12.050;2023-05-02T04:06:19;98738.34;;;21.39;41.79
13124;BME280;6627;50.920;12.050;2023-05-02T04:08:46;98833.22;;;21.99;41.84
13124;BME280;6627;50.920;12.050;2023-05-02T04:11:15;98855.00;;;22.37;40.89
13124;BME280;6627;50.920;12.050;2023-05-02T04:13:43;98917.38;;;22.76;40.03
13124;BME280;6627;50.920;12.050;2023-05-02T04:16:11;98842.47;;;22.44;39.92
13124;BME280;6627;50.920;12.050;2023-05-02T04:18:38;98622.69;;;20.60;42.60
13124;BME280;6627;50.920;12.050;2023-05-02T04:21:07;98652.13;;;20.56;43.46
13124;BME280;6627;50.920;12.050;2023-05-02T04:23:35;98737.47;;;21.09;43.22
13124;BME280;6627;50.920;12.050;2023-05-02T04:26:03;98788.19;;;21.57;42.38
13124;BME280;6627;50.920;12.050;2023-05-02T04:28:34;98913.94;;;22.52;40.85
13124;BME280;6627;50.920;12.050;2023-05-02T04:31:02;98851.06;;;22.05;41.13
13124;BME280;6627;50.920;12.050;2023-05-02T04:33:30;98869.03;;;21.95;42.01
13124;BME280;6627;50.920;12.050;2023-05-02T04:35:57;98780.56;;;21.21;43.09
13124;BME280;6627;50.920;12.050;2023-05-02T04:38:24;98766.91;;;21.05;43.35
13124;BME280;6627;50.920;12.050;2023-05-02T04:40:52;98873.00;;;21.98;42.09
13124;BME280;6627;50.920;12.050;2023-05-02T04:43:19;98964.59;;;22.67;40.99
13124;BME280;6627;50.920;12.050;2023-05-02T04:45:48;98760.69;;;21.08;42.84
13124;BME280;6627;50.920;12.050;2023-05-02T04:48:15;98747.97;;;20.54;44.72
13124;BME280;6627;50.920;12.050;2023-05-02T04:50:44;98996.09;;;22.32;42.85
13124;BME280;6627;50.920;12.050;2023-05-02T04:53:11;98904.41;;;21.89;42.66
13124;BME280;6627;50.920;12.050;2023-05-02T04:55:39;98857.34;;;21.49;43.45
13124;BME280;6627;50.920;12.050;2023-05-02T04:58:08;98918.41;;;21.77;43.67
13124;BME280;6627;50.920;12.050;2023-05-02T05:00:35;98872.31;;;21.48;43.67
13124;BME280;6627;50.920;12.050;2023-05-02T05:03:05;98985.06;;;22.32;42.43
13124;BME280;6627;50.920;12.050;2023-05-02T05:05:32;99021.88;;;22.44;42.43
13124;BME280;6627;50.920;12.050;2023-05-02T05:08:00;98883.91;;;21.34;43.79
13124;BME280;6627;50.920;12.050;2023-05-02T05:10:28;99035.34;;;22.49;42.86
13124;BME280;6627;50.920;12.050;2023-05-02T05:12:55;98926.81;;;21.84;43.13
13124;BME280;6627;50.920;12.050;2023-05-02T05:15:23;98923.50;;;21.49;44.10
13124;BME280;6627;50.920;12.050;2023-05-02T05:17:51;99035.19;;;22.38;43.27
13124;BME280;6627;50.920;12.050;2023-05-02T05:20:20;99075.19;;;22.78;42.12
13124;BME280;6627;50.920;12.050;2023-05-02T05:22:47;99087.75;;;23.02;41.78
13124;BME280;6627;50.920;12.050;2023-05-02T05:25:15;99069.94;;;22.96;41.76
13124;BME280;6627;50.920;12.050;2023-05-02T05:27:42;99041.81;;;22.60;42.57
13124;BME280;6627;50.920;12.050;2023-05-02T05:30:10;99063.25;;;22.70;42.76
13124;BME280;6627;50.920;12.050;2023-05-02T05:32:37;99156.53;;;23.40;41.67
13124;BME280;6627;50.920;12.050;2023-05-02T05:35:05;99188.28;;;23.54;41.72
13124;BME280;6627;50.920;12.050;2023-05-02T05:37:35;99024.28;;;22.45;42.57
13124;BME280;6627;50.920;12.050;2023-05-02T05:40:06;98955.09;;;21.55;45.07
13124;BME280;6627;50.920;12.050;2023-05-02T05:42:33;99127.34;;;22.83;43.43
13124;BME280;6627;50.920;12.050;2023-05-02T05:45:01;99034.63;;;22.02;44.32
13124;BME280;6627;50.920;12.050;2023-05-02T05:47:29;99160.75;;;23.01;42.60
13124;BME280;6627;50.920;12.050;2023-05-02T05:49:57;99009.66;;;21.91;43.53
13124;BME280;6627;50.920;12.050;2023-05-02T05:52:25;99251.22;;;23.60;42.17
13124;BME280;6627;50.920;12.050;2023-05-02T05:54:54;99271.31;;;23.57;42.60
13124;BME280;6627;50.920;12.050;2023-05-02T05:57:23;99294.97;;;24.15;40.86
13124;BME280;6627;50.920;12.050;2023-05-02T05:59:50;99179.25;;;23.57;41.78
13124;BME280;6627;50.920;12.050;2023-05-02T06:02:17;99214.66;;;23.74;41.03
13124;BME280;6627;50.920;12.050;2023-05-02T06:04:46;99136.06;;;23.15;41.71
13124;BME280;6627;50.920;12.050;2023-05-02T06:07:13;99104.78;;;22.77;42.43
13124;BME280;6627;50.920;12.050;2023-05-02T06:09:40;99182.03;;;23.57;40.98
13124;BME280;6627;50.920;12.050;2023-05-02T06:12:09;99088.63;;;22.26;44.76
13124;BME280;6627;50.920;12.050;2023-05-02T06:14:36;99143.25;;;22.89;42.30
13124;BME280;6627;50.920;12.050;2023-05-02T06:17:03;99264.34;;;23.67;42.28
13124;BME280;6627;50.920;12.050;2023-05-02T06:19:31;99266.94;;;23.83;41.40
13124;BME280;6627;50.920;12.050;2023-05-02T06:21:58;99280.78;;;24.20;40.38
13124;BME280;6627;50.920;12.050;2023-05-02T06:24:25;99283.75;;;24.01;41.14
13124;BME280;6627;50.920;12.050;2023-05-02T06:26:52;99112.47;;;22.91;42.20
13124;BME280;6627;50.920;12.050;2023-05-02T06:29:21;99027.47;;;21.98;44.02
13124;BME280;6627;50.920;12.050;2023-05-02T06:31:48;99214.75;;;23.21;43.24
13124;BME280;6627;50.920;12.050;2023-05-02T06:34:17;99262.03;;;23.69;41.82
13124;BME280;6627;50.920;12.050;2023-05-02T06:36:45;99378.00;;;24.45;41.10
13124;BME280;6627;50.920;12.050;2023-05-02T06:39:12;99356.94;;;24.37;40.85
13124;BME280;6627;50.920;12.050;2023-05-02T06:41:40;99359.28;;;24.72;39.91
13124;BME280;6627;50.920;12.050;2023-05-02T06:44:07;99390.66;;;24.80;40.37
13124;BME280;6627;50.920;12.050;2023-05-02T06:46:36;99341.34;;;24.59;39.99
13124;BME280;6627;50.920;12.050;2023-05-02T06:49:03;99078.22;;;23.29;40.50
13124;BME280;6627;50.920;12.050;2023-05-02T06:51:31;99312.34;;;24.46;40.29
13124;BME280;6627;50.920;12.050;2023-05-02T06:53:58;99326.59;;;24.48;40.32
13124;BME280;6627;50.920;12.050;2023-05-02T06:56:26;99161.09;;;23.56;40.99
13124;BME280;6627;50.920;12.050;2023-05-02T06:58:53;99214.81;;;23.88;40.44
13124;BME280;6627;50.920;12.050;2023-05-02T07:01:21;99210.72;;;23.75;40.94
13124;BME280;6627;50.920;12.050;2023-05-02T07:03:49;99328.59;;;24.51;40.64
13124;BME280;6627;50.920;12.050;2023-05-02T07:06:18;99519.66;;;25.92;38.67
13124;BME280;6627;50.920;12.050;2023-05-02T07:08:46;99374.09;;;25.31;38.62
13124;BME280;6627;50.920;12.050;2023-05-02T07:11:14;99183.19;;;23.89;40.24
13124;BME280;6627;50.920;12.050;2023-05-02T07:13:42;99343.94;;;24.82;39.65
13124;BME280;6627;50.920;12.050;2023-05-02T07:16:10;99321.69;;;24.71;39.91
13124;BME280;6627;50.920;12.050;2023-05-02T07:18:37;99277.09;;;24.42;40.19
13124;BME280;6627;50.920;12.050;2023-05-02T07:21:06;99337.22;;;24.79;39.95
13124;BME280;6627;50.920;12.050;2023-05-02T07:23:33;99459.91;;;25.58;39.29
13124;BME280;6627;50.920;12.050;2023-05-02T07:26:01;99344.44;;;24.91;39.60
13124;BME280;6627;50.920;12.050;2023-05-02T07:28:28;99441.78;;;25.75;38.28
13124;BME280;6627;50.920;12.050;2023-05-02T07:30:55;99294.50;;;24.43;40.60
13124;BME280;6627;50.920;12.050;2023-05-02T07:33:23;99326.94;;;24.42;41.02
13124;BME280;6627;50.920;12.050;2023-05-02T07:35:55;99288.00;;;24.28;40.94
13124;BME280;6627;50.920;12.050;2023-05-02T07:38:23;99352.00;;;24.57;41.06
13124;BME280;6627;50.920;12.050;2023-05-02T07:40:50;99673.25;;;26.04;40.79
13124;BME280;6627;50.920;12.050;2023-05-02T07:43:18;99464.13;;;25.45;40.10
13124;BME280;6627;50.920;12.050;2023-05-02T07:45:45;99497.63;;;25.66;39.65
13124;BME280;6627;50.920;12.050;2023-05-02T07:48:12;99358.59;;;24.82;40.56
13124;BME280;6627;50.920;12.050;2023-05-02T07:50:41;99176.44;;;23.53;41.89
13124;BME280;6627;50.920;12.050;2023-05-02T07:53:08;99350.13;;;24.31;42.47
13124;BME280;6627;50.920;12.050;2023-05-02T07:55:38;99319.75;;;24.04;42.36
13124;BME280;6627;50.920;12.050;2023-05-02T07:58:05;99277.75;;;23.65;42.99
13124;BME280;6627;50.920;12.050;2023-05-02T08:00:33;99447.44;;;24.63;42.38
13124;BME280;6627;50.920;12.050;2023-05-02T08:03:01;99459.53;;;24.81;41.50
13124;BME280;6627;50.920;12.050;2023-05-02T08:05:28;99388.06;;;24.60;40.91
13124;BME280;6627;50.920;12.050;2023-05-02T08:07:57;99261.69;;;23.74;41.55
13124;BME280;6627;50.920;12.050;2023-05-02T08:10:24;99284.56;;;23.45;42.80
13124;BME280;6627;50.920;12.050;2023-05-02T08:12:54;99490.44;;;25.17;40.72
13124;BME280;6627;50.920;12.050;2023-05-02T08:15:22;99405.84;;;24.59;40.87
13124;BME280;6627;50.920;12.050;2023-05-02T08:17:50;99407.78;;;24.55;40.87
13124;BME280;6627;50.920;12.050;2023-05-02T08:20:17;99342.44;;;24.17;41.45
13124;BME280;6627;50.920;12.050;2023-05-02T08:22:44;99500.50;;;25.32;40.07
13124;BME280;6627;50.920;12.050;2023-05-02T08:25:12;99560.50;;;25.92;38.83
13124;BME280;6627;50.920;12.050;2023-05-02T08:27:39;99565.38;;;26.06;39.02
13124;BME280;6627;50.920;12.050;2023-05-02T08:30:08;99287.84;;;24.14;41.71
13124;BME280;6627;50.920;12.050;2023-05-02T08:32:36;99142.09;;;22.90;42.66
13124;BME280;6627;50.920;12.050;2023-05-02T08:35:04;99411.94;;;24.72;40.68
13124;BME280;6627;50.920;12.050;2023-05-02T08:37:31;99508.03;;;25.76;38.75
13124;BME280;6627;50.920;12.050;2023-05-02T08:39:59;99336.56;;;24.56;40.12
13124;BME280;6627;50.920;12.050;2023-05-02T08:42:30;99626.16;;;26.66;38.31
13124;BME280;6627;50.920;12.050;2023-05-02T08:45:01;99354.09;;;24.67;40.13
13124;BME280;6627;50.920;12.050;2023-05-02T08:47:31;99506.56;;;25.93;38.31
13124;BME280;6627;50.920;12.050;2023-05-02T08:49:58;99299.44;;;24.64;39.08
13124;BME280;6627;50.920;12.050;2023-05-02T08:52:27;99547.06;;;25.98;37.97
13124;BME280;6627;50.920;12.050;2023-05-02T08:54:57;99380.16;;;25.48;38.10
13124;BME280;6627;50.920;12.050;2023-05-02T08:57:28;99501.78;;;25.86;38.58
13124;BME280;6627;50.920;12.050;2023-05-02T08:59:57;99420.47;;;25.34;38.00
13124;BME280;6627;50.920;12.050;2023-05-02T09:02:46;99474.72;;;25.76;38.46
13124;BME280;6627;50.920;12.050;2023-05-02T09:05:19;99364.00;;;25.09;39.04
13124;BME280;6627;50.920;12.050;2023-05-02T09:07:50;99123.78;;;23.09;41.33
13124;BME280;6627;50.920;12.050;2023-05-02T09:10:20;99361.75;;;24.44;40.94
13124;BME280;6627;50.920;12.050;2023-05-02T09:12:48;99415.28;;;24.88;39.94
13124;BME280;6627;50.920;12.050;2023-05-02T09:15:16;99294.31;;;24.29;39.09
13124;BME280;6627;50.920;12.050;2023-05-02T09:17:46;99293.47;;;24.25;39.66
13124;BME280;6627;50.920;12.050;2023-05-02T09:20:15;99311.63;;;24.19;39.78
13124;BME280;6627;50.920;12.050;2023-05-02T09:22:48;99280.25;;;23.74;41.25
13124;BME280;6627;50.920;12.050;2023-05-02T09:25:16;99106.91;;;22.34;41.97
13124;BME280;6627;50.920;12.050;2023-05-02T09:27:50;99302.50;;;23.84;40.32
13124;BME280;6627;50.920;12.050;2023-05-02T09:30:20;99327.91;;;23.94;40.33
13124;BME280;6627;50.920;12.050;2023-05-02T09:32:51;99408.63;;;24.59;39.26
13124;BME280;6627;50.920;12.050;2023-05-02T09:35:20;99287.41;;;23.78;40.03
13124;BME280;6627;50.920;12.050;2023-05-02T09:37:51;99299.13;;;23.68;41.30
13124;BME280;6627;50.920;12.050;2023-05-02T09:40:18;99436.16;;;24.45;40.74
13124;BME280;6627;50.920;12.050;2023-05-02T09:42:47;99486.69;;;25.02;39.65
13124;BME280;6627;50.920;12.050;2023-05-02T09:45:22;99460.59;;;25.07;38.64
13124;BME280;6627;50.920;12.050;2023-05-02T09:47:52;99389.63;;;24.58;39.36
13124;BME280;6627;50.920;12.050;2023-05-02T09:50:32;99574.47;;;25.99;37.45
13124;BME280;6627;50.920;12.050;2023-05-02T09:53:05;99298.41;;;24.38;38.63
13124;BME280;6627;50.920;12.050;2023-05-02T09:55:33;99574.97;;;26.12;37.22
13124;BME280;6627;50.920;12.050;2023-05-02T09:58:00;99174.84;;;23.82;38.36
13124;BME280;6627;50.920;12.050;2023-05-02T10:00:39;99418.25;;;25.54;36.60
13124;BME280;6627;50.920;12.050;2023-05-02T10:03:08;99646.16;;;26.89;35.86
13124;BME280;6627;50.920;12.050;2023-05-02T10:05:38;99413.63;;;25.69;36.79
13124;BME280;6627;50.920;12.050;2023-05-02T10:08:06;99303.13;;;25.23;36.22
13124;BME280;6627;50.920;12.050;2023-05-02T10:10:37;99326.13;;;25.27;36.56
13124;BME280;6627;50.920;12.050;2023-05-02T10:13:07;99232.38;;;24.88;35.74
13124;BME280;6627;50.920;12.050;2023-05-02T10:15:41;99195.84;;;24.72;35.41
13124;BME280;6627;50.920;12.050;2023-05-02T10:18:15;99429.03;;;26.22;34.70
13124;BME280;6627;50.920;12.050;2023-05-02T10:20:54;99468.91;;;26.65;33.66
13124;BME280;6627;50.920;12.050;2023-05-02T10:23:26;99419.16;;;26.31;35.26
13124;BME280;6627;50.920;12.050;2023-05-02T10:25:54;99412.75;;;26.24;34.84
13124;BME280;6627;50.920;12.050;2023-05-02T10:28:22;99218.34;;;25.22;35.45
13124;BME280;6627;50.920;12.050;2023-05-02T10:30:50;99403.50;;;25.95;35.46
13124;BME280;6627;50.920;12.050;2023-05-02T10:33:22;99220.47;;;24.88;36.78
13124;BME280;6627;50.920;12.050;2023-05-02T10:35:49;99298.53;;;25.49;35.61
13124;BME280;6627;50.920;12.050;2023-05-02T10:38:19;99347.16;;;25.90;34.91
13124;BME280;6627;50.920;12.050;2023-05-02T10:40:51;99587.16;;;27.35;34.52
13124;BME280;6627;50.920;12.050;2023-05-02T10:43:25;99495.34;;;27.42;33.31
13124;BME280;6627;50.920;12.050;2023-05-02T10:45:54;99131.69;;;25.32;35.05
13124;BME280;6627;50.920;12.050;2023-05-02T10:48:24;99150.84;;;24.89;36.27
13124;BME280;6627;50.920;12.050;2023-05-02T10:50:54;99286.13;;;25.98;34.72
13124;BME280;6627;50.920;12.050;2023-05-02T10:53:29;99476.66;;;27.22;33.75
13124;BME280;6627;50.920;12.050;2023-05-02T10:56:17;99414.66;;;27.21;32.89
13124;BME280;6627;50.920;12.050;2023-05-02T10:58:47;99131.31;;;25.48;35.02
13124;BME280;6627;50.920;12.050;2023-05-02T11:01:34;99298.91;;;26.16;34.76
13124;BME280;6627;50.920;12.050;2023-05-02T11:04:07;99327.91;;;26.30;34.50
13124;BME280;6627;50.920;12.050;2023-05-02T11:06:36;99426.91;;;26.99;34.10
13124;BME280;6627;50.920;12.050;2023-05-02T11:09:31;99381.59;;;26.66;34.76
13124;BME280;6627;50.920;12.050;2023-05-02T11:12:02;99419.00;;;26.97;33.77
13124;BME280;6627;50.920;12.050;2023-05-02T11:14:44;99408.31;;;27.24;32.72
13124;BME280;6627;50.920;12.050;2023-05-02T11:17:16;99334.78;;;26.79;33.40
13124;BME280;6627;50.920;12.050;2023-05-02T11:20:20;99330.81;;;27.12;32.35
13124;BME280;6627;50.920;12.050;2023-05-02T11:22:49;99358.25;;;27.24;32.75
13124;BME280;6627;50.920;12.050;2023-05-02T11:25:35;99144.16;;;25.96;34.03
13124;BME280;6627;50.920;12.050;2023-05-02T11:28:05;99157.63;;;25.94;34.01
13124;BME280;6627;50.920;12.050;2023-05-02T11:30:39;99214.00;;;26.12;34.03
13124;BME280;6627;50.920;12.050;2023-05-02T11:33:16;98948.81;;;24.56;34.85
13124;BME280;6627;50.920;12.050;2023-05-02T11:35:47;99097.56;;;25.25;34.65
13124;BME280;6627;50.920;12.050;2023-05-02T11:38:19;99439.31;;;27.55;32.52
13124;BME280;6627;50.920;12.050;2023-05-02T11:41:05;99197.31;;;26.05;34.08
13124;BME280;6627;50.920;12.050;2023-05-02T11:43:32;99157.66;;;26.33;32.27
13124;BME280;6627;50.920;12.050;2023-05-02T11:46:00;99306.16;;;26.64;33.45
13124;BME280;6627;50.920;12.050;2023-05-02T11:48:29;99216.00;;;26.36;33.23
13124;BME280;6627;50.920;12.050;2023-05-02T11:51:00;99399.16;;;27.49;32.16
13124;BME280;6627;50.920;12.050;2023-05-02T11:53:30;99380.09;;;27.54;31.65
13124;BME280;6627;50.920;12.050;2023-05-02T11:56:00;99181.91;;;26.61;32.66
13124;BME280;6627;50.920;12.050;2023-05-02T11:58:57;99170.34;;;26.09;34.29
13124;BME280;6627;50.920;12.050;2023-05-02T12:01:24;99137.78;;;25.77;34.97
13124;BME280;6627;50.920;12.050;2023-05-02T12:04:01;99454.41;;;27.25;35.23
13124;BME280;6627;50.920;12.050;2023-05-02T12:06:31;99516.00;;;27.20;36.41
13124;BME280;6627;50.920;12.050;2023-05-02T12:09:09;99398.78;;;26.06;39.04
13124;BME280;6627;50.920;12.050;2023-05-02T12:11:37;99335.72;;;25.40;40.01
13124;BME280;6627;50.920;12.050;2023-05-02T12:14:04;99655.06;;;27.16;38.79
13124;BME280;6627;50.920;12.050;2023-05-02T12:16:32;99497.25;;;26.19;39.27
13124;BME280;6627;50.920;12.050;2023-05-02T12:19:00;99511.44;;;26.07;40.20
13124;BME280;6627;50.920;12.050;2023-05-02T12:21:28;99328.59;;;25.39;37.78
13124;BME280;6627;50.920;12.050;2023-05-02T12:24:00;99578.78;;;26.45;39.49
13124;BME280;6627;50.920;12.050;2023-05-02T12:26:27;99610.53;;;27.13;36.83
13124;BME280;6627;50.920;12.050;2023-05-02T12:28:57;99448.94;;;26.41;36.01
13124;BME280;6627;50.920;12.050;2023-05-02T12:31:26;99526.94;;;26.70;36.73
13124;BME280;6627;50.920;12.050;2023-05-02T12:33:56;99160.69;;;23.91;39.57
13124;BME280;6627;50.920;12.050;2023-05-02T12:36:25;99032.34;;;22.08;42.41
13124;BME280;6627;50.920;12.050;2023-05-02T12:38:56;99165.16;;;22.29;44.33
13124;BME280;6627;50.920;12.050;2023-05-02T12:41:32;99445.53;;;23.57;43.60
13124;BME280;6627;50.920;12.050;2023-05-02T12:44:00;99079.31;;;20.02;49.52
13124;BME280;6627;50.920;12.050;2023-05-02T12:46:28;99349.69;;;20.62;52.42
13124;BME280;6627;50.920;12.050;2023-05-02T12:49:03;99539.28;;;21.79;50.58
13124;BME280;6627;50.920;12.050;2023-05-02T12:51:32;99568.88;;;22.46;47.23
13124;BME280;6627;50.920;12.050;2023-05-02T12:53:59;99619.66;;;22.76;46.52
13124;BME280;6627;50.920;12.050;2023-05-02T12:56:28;99451.41;;;21.30;49.45
13124;BME280;6627;50.920;12.050;2023-05-02T12:58:58;99547.81;;;22.06;48.49
13124;BME280;6627;50.920;12.050;2023-05-02T13:01:32;99716.44;;;23.15;47.94
13124;BME280;6627;50.920;12.050;2023-05-02T13:04:00;99627.13;;;22.91;47.02
13124;BME280;6627;50.920;12.050;2023-05-02T13:06:29;99645.13;;;22.85;47.71
13124;BME280;6627;50.920;12.050;2023-05-02T13:08:57;99752.47;;;23.92;46.74
13124;BME280;6627;50.920;12.050;2023-05-02T13:11:25;99514.50;;;22.30;47.06
13124;BME280;6627;50.920;12.050;2023-05-02T13:13:54;99682.56;;;23.76;46.11
13124;BME280;6627;50.920;12.050;2023-05-02T13:16:22;99577.84;;;22.78;47.16
13124;BME280;6627;50.920;12.050;2023-05-02T13:18:51;99741.06;;;24.17;45.68